sensor_id;sensor_type;location;lat;lon;timestamp;temperature;humidity
48876;DHT22;34689;51.644;5.618;2022-11-02T00:00:31;14.90;96.90
48876;DHT22;34689;51.644;5.618;2022-11-02T00:02:59;14.90;97.00
48876;DHT22;34689;51.644;5.618;2022-11-02T00:05:26;14.90;97.00
48876;DHT22;34689;51.644;5.618;2022-11-02T00:07:53;14.90;97.00
48876;DHT22;34689;51.644;5.618;2022-11-02T00:10:20;14.90;97.00
48876;DHT22;34689;51.644;5.618;2022-11-02T00:12:46;14.90;97.00
48876;DHT22;34689;51.644;5.618;2022-11-02T00:15:12;14.90;97.10
48876;DHT22;34689;51.644;5.618;2022-11-02T00:17:40;14.90;97.10
48876;DHT22;34689;51.644;5.618;2022-11-02T00:20:08;14.90;97.10
48876;DHT22;34689;51.644;5.618;2022-11-02T00:22:37;14.90;97.10
48876;DHT22;34689;51.644;5.618;2022-11-02T00:25:04;14.90;97.10
48876;DHT22;34689;51.644;5.618;2022-11-02T00:27:33;14.90;97.10
48876;DHT22;34689;51.644;5.618;2022-11-02T00:30:00;14.90;97.20
48876;DHT22;34689;51.644;5.618;2022-11-02T00:32:26;14.90;97.20
48876;DHT22;34689;51.644;5.618;2022-11-02T00:34:52;14.90;97.20
48876;DHT22;34689;51.644;5.618;2022-11-02T00:37:18;14.90;97.20
48876;DHT22;34689;51.644;5.618;2022-11-02T00:39:43;14.90;97.20
48876;DHT22;34689;51.644;5.618;2022-11-02T00:42:09;14.90;97.20
48876;DHT22;34689;51.644;5.618;2022-11-02T00:44:38;14.90;97.20
48876;DHT22;34689;51.644;5.618;2022-11-02T00:47:04;14.80;97.10
48876;DHT22;34689;51.644;5.618;2022-11-02T00:49:30;14.80;97.10
48876;DHT22;34689;51.644;5.618;2022-11-02T00:51:55;14.80;97.10
48876;DHT22;34689;51.644;5.618;2022-11-02T00:54:23;14.80;97.10
48876;DHT22;34689;51.644;5.618;2022-11-02T00:56:49;14.80;97.10
48876;DHT22;34689;51.644;5.618;2022-11-02T00:59:14;14.80;97.10
48876;DHT22;34689;51.644;5.618;2022-11-02T01:01:40;14.80;97.10
48876;DHT22;34689;51.644;5.618;2022-11-02T01:04:12;14.80;97.00
48876;DHT22;34689;51.644;5.618;2022-11-02T01:06:39;14.80;96.90
48876;DHT22;34689;51.644;5.618;2022-11-02T01:09:07;14.80;96.90
48876;DHT22;34689;51.644;5.618;2022-11-02T01:11:33;14.80;96.90
48876;DHT22;34689;51.644;5.618;2022-11-02T01:13:59;14.80;96.90
48876;DHT22;34689;51.644;5.618;2022-11-02T01:16:25;14.80;96.90
48876;DHT22;34689;51.644;5.618;2022-11-02T01:18:57;14.80;96.90
48876;DHT22;34689;51.644;5.618;2022-11-02T01:21:24;14.80;96.80
48876;DHT22;34689;51.644;5.618;2022-11-02T01:23:50;14.70;96.80
48876;DHT22;34689;51.644;5.618;2022-11-02T01:26:18;14.70;96.80
48876;DHT22;34689;51.644;5.618;2022-11-02T01:28:44;14.70;96.80
48876;DHT22;34689;51.644;5.618;2022-11-02T01:31:10;14.60;96.80
48876;DHT22;34689;51.644;5.618;2022-11-02T01:33:37;14.60;96.80
48876;DHT22;34689;51.644;5.618;2022-11-02T01:36:04;14.50;96.70
48876;DHT22;34689;51.644;5.618;2022-11-02T01:38:31;14.50;96.70
48876;DHT22;34689;51.644;5.618;2022-11-02T01:40:57;14.50;96.70
48876;DHT22;34689;51.644;5.618;2022-11-02T01:43:29;14.50;96.70
48876;DHT22;34689;51.644;5.618;2022-11-02T01:46:20;14.50;96.60
48876;DHT22;34689;51.644;5.618;2022-11-02T01:48:52;14.50;96.60
48876;DHT22;34689;51.644;5.618;2022-11-02T01:51:24;14.40;96.60
48876;DHT22;34689;51.644;5.618;2022-11-02T01:53:53;14.40;96.60
48876;DHT22;34689;51.644;5.618;2022-11-02T01:56:22;14.40;96.50
48876;DHT22;34689;51.644;5.618;2022-11-02T01:58:53;14.40;96.50
48876;DHT22;34689;51.644;5.618;2022-11-02T02:01:19;14.40;96.50
48876;DHT22;34689;51.644;5.618;2022-11-02T02:03:48;14.40;96.50
48876;DHT22;34689;51.644;5.618;2022-11-02T02:06:14;14.30;96.50
48876;DHT22;34689;51.644;5.618;2022-11-02T02:08:46;14.30;96.50
48876;DHT22;34689;51.644;5.618;2022-11-02T02:11:33;14.20;96.40
48876;DHT22;34689;51.644;5.618;2022-11-02T02:14:09;14.20;96.50
48876;DHT22;34689;51.644;5.618;2022-11-02T02:35:57;14.10;96.50
48876;DHT22;34689;51.644;5.618;2022-11-02T02:38:34;14.10;96.80
48876;DHT22;34689;51.644;5.618;2022-11-02T02:41:15;14.10;96.60
48876;DHT22;34689;51.644;5.618;2022-11-02T02:43:48;14.00;96.60
48876;DHT22;34689;51.644;5.618;2022-11-02T02:46:36;14.00;96.60
48876;DHT22;34689;51.644;5.618;2022-11-02T02:49:03;14.00;96.70
48876;DHT22;34689;51.644;5.618;2022-11-02T02:51:31;14.00;96.70
48876;DHT22;34689;51.644;5.618;2022-11-02T02:54:10;13.90;96.70
48876;DHT22;34689;51.644;5.618;2022-11-02T02:56:39;13.90;96.80
48876;DHT22;34689;51.644;5.618;2022-11-02T02:59:20;13.90;96.80
48876;DHT22;34689;51.644;5.618;2022-11-02T03:01:47;13.90;96.80
48876;DHT22;34689;51.644;5.618;2022-11-02T03:04:16;13.90;96.80
48876;DHT22;34689;51.644;5.618;2022-11-02T03:06:45;13.80;96.90
48876;DHT22;34689;51.644;5.618;2022-11-02T03:20:52;13.70;97.00
48876;DHT22;34689;51.644;5.618;2022-11-02T03:23:37;13.70;97.00
48876;DHT22;34689;51.644;5.618;2022-11-02T03:26:05;13.60;96.90
48876;DHT22;34689;51.644;5.618;2022-11-02T03:31:07;13.60;97.00
48876;DHT22;34689;51.644;5.618;2022-11-02T03:33:37;13.60;97.00
48876;DHT22;34689;51.644;5.618;2022-11-02T03:36:11;13.60;97.00
48876;DHT22;34689;51.644;5.618;2022-11-02T03:38:50;13.60;97.00
48876;DHT22;34689;51.644;5.618;2022-11-02T03:41:19;13.60;97.00
48876;DHT22;34689;51.644;5.618;2022-11-02T03:43:47;13.60;97.00
48876;DHT22;34689;51.644;5.618;2022-11-02T03:46:14;13.50;96.90
48876;DHT22;34689;51.644;5.618;2022-11-02T03:48:44;13.50;96.90
48876;DHT22;34689;51.644;5.618;2022-11-02T03:51:13;13.50;96.90
48876;DHT22;34689;51.644;5.618;2022-11-02T03:53:55;13.60;97.00
48876;DHT22;34689;51.644;5.618;2022-11-02T03:56:29;13.60;97.20
48876;DHT22;34689;51.644;5.618;2022-11-02T03:58:56;13.60;96.90
48876;DHT22;34689;51.644;5.618;2022-11-02T04:01:22;13.50;96.90
48876;DHT22;34689;51.644;5.618;2022-11-02T04:03:48;13.50;96.90
48876;DHT22;34689;51.644;5.618;2022-11-02T04:06:14;13.50;96.90
48876;DHT22;34689;51.644;5.618;2022-11-02T04:08:49;13.50;96.90
48876;DHT22;34689;51.644;5.618;2022-11-02T04:11:15;13.50;97.00
48876;DHT22;34689;51.644;5.618;2022-11-02T04:14:00;13.50;97.00
48876;DHT22;34689;51.644;5.618;2022-11-02T04:16:44;13.50;97.00
48876;DHT22;34689;51.644;5.618;2022-11-02T04:19:10;13.50;97.00
48876;DHT22;34689;51.644;5.618;2022-11-02T04:21:56;13.40;97.00
48876;DHT22;34689;51.644;5.618;2022-11-02T04:24:41;13.40;97.30
48876;DHT22;34689;51.644;5.618;2022-11-02T04:27:28;13.40;97.10
48876;DHT22;34689;51.644;5.618;2022-11-02T04:29:53;13.40;97.10
48876;DHT22;34689;51.644;5.618;2022-11-02T04:32:19;13.40;97.20
48876;DHT22;34689;51.644;5.618;2022-11-02T04:35:04;13.40;97.20
48876;DHT22;34689;51.644;5.618;2022-11-02T04:37:29;13.40;97.20
48876;DHT22;34689;51.644;5.618;2022-11-02T04:40:14;13.40;97.20
48876;DHT22;34689;51.644;5.618;2022-11-02T04:42:39;13.30;97.20
48876;DHT22;34689;51.644;5.618;2022-11-02T04:45:05;13.40;97.30
48876;DHT22;34689;51.644;5.618;2022-11-02T04:47:31;13.40;97.30
48876;DHT22;34689;51.644;5.618;2022-11-02T04:49:56;13.40;97.30
48876;DHT22;34689;51.644;5.618;2022-11-02T04:52:22;13.40;97.40
48876;DHT22;34689;51.644;5.618;2022-11-02T04:54:48;13.30;97.30
48876;DHT22;34689;51.644;5.618;2022-11-02T04:57:13;13.30;97.40
48876;DHT22;34689;51.644;5.618;2022-11-02T04:59:41;13.30;97.40
48876;DHT22;34689;51.644;5.618;2022-11-02T05:02:07;13.30;97.40
48876;DHT22;34689;51.644;5.618;2022-11-02T05:04:32;13.30;97.50
48876;DHT22;34689;51.644;5.618;2022-11-02T05:06:58;13.30;97.50
48876;DHT22;34689;51.644;5.618;2022-11-02T05:09:24;13.20;97.50
48876;DHT22;34689;51.644;5.618;2022-11-02T05:11:50;13.20;97.40
48876;DHT22;34689;51.644;5.618;2022-11-02T05:14:16;13.30;97.50
48876;DHT22;34689;51.644;5.618;2022-11-02T05:16:41;13.20;97.50
48876;DHT22;34689;51.644;5.618;2022-11-02T05:19:07;13.20;97.50
48876;DHT22;34689;51.644;5.618;2022-11-02T05:21:32;13.20;97.50
48876;DHT22;34689;51.644;5.618;2022-11-02T05:23:58;13.20;97.50
48876;DHT22;34689;51.644;5.618;2022-11-02T05:26:24;13.20;97.50
48876;DHT22;34689;51.644;5.618;2022-11-02T05:28:50;13.20;97.50
48876;DHT22;34689;51.644;5.618;2022-11-02T05:31:17;13.20;97.50
48876;DHT22;34689;51.644;5.618;2022-11-02T05:33:45;13.20;97.60
48876;DHT22;34689;51.644;5.618;2022-11-02T05:36:11;13.20;97.60
48876;DHT22;34689;51.644;5.618;2022-11-02T05:38:37;13.20;97.80
48876;DHT22;34689;51.644;5.618;2022-11-02T05:41:02;13.20;97.60
48876;DHT22;34689;51.644;5.618;2022-11-02T05:43:28;13.20;97.60
48876;DHT22;34689;51.644;5.618;2022-11-02T05:45:59;13.20;97.60
48876;DHT22;34689;51.644;5.618;2022-11-02T05:48:26;13.20;97.60
48876;DHT22;34689;51.644;5.618;2022-11-02T05:50:55;13.20;97.60
48876;DHT22;34689;51.644;5.618;2022-11-02T05:53:22;13.20;97.50
48876;DHT22;34689;51.644;5.618;2022-11-02T05:55:48;13.10;97.50
48876;DHT22;34689;51.644;5.618;2022-11-02T05:58:15;13.10;97.60
48876;DHT22;34689;51.644;5.618;2022-11-02T06:00:41;13.10;97.60
48876;DHT22;34689;51.644;5.618;2022-11-02T06:03:07;13.10;97.60
48876;DHT22;34689;51.644;5.618;2022-11-02T06:05:33;13.00;97.60
48876;DHT22;34689;51.644;5.618;2022-11-02T06:08:00;13.00;97.70
48876;DHT22;34689;51.644;5.618;2022-11-02T06:10:27;13.00;97.70
48876;DHT22;34689;51.644;5.618;2022-11-02T06:12:58;13.00;97.70
48876;DHT22;34689;51.644;5.618;2022-11-02T06:15:25;12.90;97.70
48876;DHT22;34689;51.644;5.618;2022-11-02T06:17:53;12.90;97.70
48876;DHT22;34689;51.644;5.618;2022-11-02T06:20:19;12.90;97.70
48876;DHT22;34689;51.644;5.618;2022-11-02T06:22:45;12.90;97.80
48876;DHT22;34689;51.644;5.618;2022-11-02T06:25:12;12.80;97.80
48876;DHT22;34689;51.644;5.618;2022-11-02T06:27:38;12.80;97.80
48876;DHT22;34689;51.644;5.618;2022-11-02T06:30:04;12.80;97.80
48876;DHT22;34689;51.644;5.618;2022-11-02T06:32:30;12.70;97.90
48876;DHT22;34689;51.644;5.618;2022-11-02T06:34:56;12.70;97.90
48876;DHT22;34689;51.644;5.618;2022-11-02T06:37:21;12.70;97.90
48876;DHT22;34689;51.644;5.618;2022-11-02T06:39:48;12.70;97.90
48876;DHT22;34689;51.644;5.618;2022-11-02T06:42:13;12.70;98.00
48876;DHT22;34689;51.644;5.618;2022-11-02T06:44:39;12.60;98.00
48876;DHT22;34689;51.644;5.618;2022-11-02T06:47:05;12.60;98.00
48876;DHT22;34689;51.644;5.618;2022-11-02T06:49:31;12.60;98.00
48876;DHT22;34689;51.644;5.618;2022-11-02T06:51:57;12.60;98.10
48876;DHT22;34689;51.644;5.618;2022-11-02T06:54:22;12.60;98.10
48876;DHT22;34689;51.644;5.618;2022-11-02T06:56:48;12.50;98.10
48876;DHT22;34689;51.644;5.618;2022-11-02T06:59:14;12.50;98.10
48876;DHT22;34689;51.644;5.618;2022-11-02T07:01:39;12.50;98.20
48876;DHT22;34689;51.644;5.618;2022-11-02T07:04:05;12.60;98.20
48876;DHT22;34689;51.644;5.618;2022-11-02T07:06:31;12.60;98.20
48876;DHT22;34689;51.644;5.618;2022-11-02T07:08:56;12.50;98.20
48876;DHT22;34689;51.644;5.618;2022-11-02T07:11:24;12.60;98.30
48876;DHT22;34689;51.644;5.618;2022-11-02T07:13:50;12.50;98.30
48876;DHT22;34689;51.644;5.618;2022-11-02T07:16:16;12.50;98.30
48876;DHT22;34689;51.644;5.618;2022-11-02T07:18:41;12.50;98.30
48876;DHT22;34689;51.644;5.618;2022-11-02T07:21:07;12.50;98.40
48876;DHT22;34689;51.644;5.618;2022-11-02T07:23:38;12.50;98.40
48876;DHT22;34689;51.644;5.618;2022-11-02T07:26:04;12.50;98.40
48876;DHT22;34689;51.644;5.618;2022-11-02T07:28:32;12.50;98.40
48876;DHT22;34689;51.644;5.618;2022-11-02T07:30:57;12.50;98.40
48876;DHT22;34689;51.644;5.618;2022-11-02T07:33:23;12.50;98.40
48876;DHT22;34689;51.644;5.618;2022-11-02T07:35:49;12.50;98.40
48876;DHT22;34689;51.644;5.618;2022-11-02T07:38:14;12.50;98.40
48876;DHT22;34689;51.644;5.618;2022-11-02T07:40:40;12.50;98.40
48876;DHT22;34689;51.644;5.618;2022-11-02T07:43:06;12.50;98.40
48876;DHT22;34689;51.644;5.618;2022-11-02T07:45:32;12.50;98.50
48876;DHT22;34689;51.644;5.618;2022-11-02T07:47:58;12.40;98.70
48876;DHT22;34689;51.644;5.618;2022-11-02T07:50:24;12.40;98.50
48876;DHT22;34689;51.644;5.618;2022-11-02T07:52:56;12.40;98.50
48876;DHT22;34689;51.644;5.618;2022-11-02T07:55:30;12.50;98.50
48876;DHT22;34689;51.644;5.618;2022-11-02T07:58:01;12.50;98.50
48876;DHT22;34689;51.644;5.618;2022-11-02T08:00:29;12.50;98.50
48876;DHT22;34689;51.644;5.618;2022-11-02T08:02:57;12.50;98.50
48876;DHT22;34689;51.644;5.618;2022-11-02T08:05:23;12.50;98.50
48876;DHT22;34689;51.644;5.618;2022-11-02T08:08:02;12.50;98.50
48876;DHT22;34689;51.644;5.618;2022-11-02T08:10:29;12.50;98.50
48876;DHT22;34689;51.644;5.618;2022-11-02T08:12:56;12.60;98.60
48876;DHT22;34689;51.644;5.618;2022-11-02T08:15:22;12.60;98.50
48876;DHT22;34689;51.644;5.618;2022-11-02T08:18:00;12.60;98.60
48876;DHT22;34689;51.644;5.618;2022-11-02T08:20:27;12.60;98.60
48876;DHT22;34689;51.644;5.618;2022-11-02T08:22:53;12.60;98.60
48876;DHT22;34689;51.644;5.618;2022-11-02T08:25:21;12.60;98.70
48876;DHT22;34689;51.644;5.618;2022-11-02T08:27:49;12.60;98.70
48876;DHT22;34689;51.644;5.618;2022-11-02T08:30:15;12.60;98.70
48876;DHT22;34689;51.644;5.618;2022-11-02T08:32:40;12.60;98.70
48876;DHT22;34689;51.644;5.618;2022-11-02T08:35:06;12.70;98.70
48876;DHT22;34689;51.644;5.618;2022-11-02T08:37:34;12.70;98.70
48876;DHT22;34689;51.644;5.618;2022-11-02T08:40:00;12.70;98.70
48876;DHT22;34689;51.644;5.618;2022-11-02T08:42:26;12.70;98.70
48876;DHT22;34689;51.644;5.618;2022-11-02T08:44:52;12.80;98.70
48876;DHT22;34689;51.644;5.618;2022-11-02T08:47:17;12.80;98.70
48876;DHT22;34689;51.644;5.618;2022-11-02T08:49:43;12.80;98.70
48876;DHT22;34689;51.644;5.618;2022-11-02T08:52:09;12.80;98.70
48876;DHT22;34689;51.644;5.618;2022-11-02T08:54:34;12.80;98.70
48876;DHT22;34689;51.644;5.618;2022-11-02T08:57:00;12.90;98.70
48876;DHT22;34689;51.644;5.618;2022-11-02T08:59:26;12.90;98.60
48876;DHT22;34689;51.644;5.618;2022-11-02T09:01:51;12.90;98.60
48876;DHT22;34689;51.644;5.618;2022-11-02T09:04:17;12.90;98.60
48876;DHT22;34689;51.644;5.618;2022-11-02T09:06:43;13.00;98.60
48876;DHT22;34689;51.644;5.618;2022-11-02T09:09:08;13.00;98.60
48876;DHT22;34689;51.644;5.618;2022-11-02T09:11:34;13.00;98.50
48876;DHT22;34689;51.644;5.618;2022-11-02T09:14:01;13.10;98.60
48876;DHT22;34689;51.644;5.618;2022-11-02T09:16:26;13.20;98.40
48876;DHT22;34689;51.644;5.618;2022-11-02T09:18:52;13.70;98.10
48876;DHT22;34689;51.644;5.618;2022-11-02T09:21:18;14.30;97.30
48876;DHT22;34689;51.644;5.618;2022-11-02T09:23:43;14.50;96.80
48876;DHT22;34689;51.644;5.618;2022-11-02T09:26:13;14.50;96.70
48876;DHT22;34689;51.644;5.618;2022-11-02T09:28:38;14.40;96.60
48876;DHT22;34689;51.644;5.618;2022-11-02T09:31:04;14.70;96.40
48876;DHT22;34689;51.644;5.618;2022-11-02T09:33:32;15.40;95.90
48876;DHT22;34689;51.644;5.618;2022-11-02T09:36:02;16.90;94.40
48876;DHT22;34689;51.644;5.618;2022-11-02T09:38:28;18.90;92.10
48876;DHT22;34689;51.644;5.618;2022-11-02T09:41:04;21.00;88.50
48876;DHT22;34689;51.644;5.618;2022-11-02T09:49:15;23.70;77.70
48876;DHT22;34689;51.644;5.618;2022-11-02T09:51:45;23.90;75.10
48876;DHT22;34689;51.644;5.618;2022-11-02T09:56:44;24.70;71.50
48876;DHT22;34689;51.644;5.618;2022-11-02T09:59:29;22.90;74.80
48876;DHT22;34689;51.644;5.618;2022-11-02T10:04:47;21.60;77.90
48876;DHT22;34689;51.644;5.618;2022-11-02T10:18:02;19.10;86.20
48876;DHT22;34689;51.644;5.618;2022-11-02T10:20:46;18.70;88.10
48876;DHT22;34689;51.644;5.618;2022-11-02T10:23:25;18.40;89.10
48876;DHT22;34689;51.644;5.618;2022-11-02T10:25:54;18.20;89.50
48876;DHT22;34689;51.644;5.618;2022-11-02T10:28:24;17.90;89.40
48876;DHT22;34689;51.644;5.618;2022-11-02T10:30:54;17.50;90.30
48876;DHT22;34689;51.644;5.618;2022-11-02T10:33:25;17.20;90.70
48876;DHT22;34689;51.644;5.618;2022-11-02T10:38:36;16.90;91.10
48876;DHT22;34689;51.644;5.618;2022-11-02T10:43:46;16.90;91.10
48876;DHT22;34689;51.644;5.618;2022-11-02T10:51:30;16.90;90.90
48876;DHT22;34689;51.644;5.618;2022-11-02T10:53:56;16.90;90.90
48876;DHT22;34689;51.644;5.618;2022-11-02T10:56:23;17.00;91.00
48876;DHT22;34689;51.644;5.618;2022-11-02T11:04:21;17.00;91.10
48876;DHT22;34689;51.644;5.618;2022-11-02T11:06:48;17.10;91.10
48876;DHT22;34689;51.644;5.618;2022-11-02T11:09:18;17.10;91.00
48876;DHT22;34689;51.644;5.618;2022-11-02T11:11:53;17.00;91.00
48876;DHT22;34689;51.644;5.618;2022-11-02T11:14:21;17.10;91.00
48876;DHT22;34689;51.644;5.618;2022-11-02T11:16:52;17.10;91.00
48876;DHT22;34689;51.644;5.618;2022-11-02T11:21:46;17.10;91.00
48876;DHT22;34689;51.644;5.618;2022-11-02T11:30:01;17.10;90.30
48876;DHT22;34689;51.644;5.618;2022-11-02T11:32:27;17.00;90.60
48876;DHT22;34689;51.644;5.618;2022-11-02T11:37:23;17.10;90.60
48876;DHT22;34689;51.644;5.618;2022-11-02T11:39:55;17.10;90.60
48876;DHT22;34689;51.644;5.618;2022-11-02T11:42:25;17.20;90.20
48876;DHT22;34689;51.644;5.618;2022-11-02T11:44:58;17.10;89.50
48876;DHT22;34689;51.644;5.618;2022-11-02T11:47:27;17.00;89.10
48876;DHT22;34689;51.644;5.618;2022-11-02T11:49:54;17.00;89.40
48876;DHT22;34689;51.644;5.618;2022-11-02T11:52:26;17.00;90.00
48876;DHT22;34689;51.644;5.618;2022-11-02T11:54:55;17.00;90.10
48876;DHT22;34689;51.644;5.618;2022-11-02T11:57:31;17.00;90.00
48876;DHT22;34689;51.644;5.618;2022-11-02T11:59:59;17.10;90.00
48876;DHT22;34689;51.644;5.618;2022-11-02T12:02:30;17.10;89.90
48876;DHT22;34689;51.644;5.618;2022-11-02T12:05:22;17.10;90.00
48876;DHT22;34689;51.644;5.618;2022-11-02T12:08:00;17.10;89.80
48876;DHT22;34689;51.644;5.618;2022-11-02T12:10:41;17.10;89.70
48876;DHT22;34689;51.644;5.618;2022-11-02T12:16:31;17.10;89.80
48876;DHT22;34689;51.644;5.618;2022-11-02T12:19:17;17.00;90.00
48876;DHT22;34689;51.644;5.618;2022-11-02T12:22:15;17.00;88.40
48876;DHT22;34689;51.644;5.618;2022-11-02T12:30:14;16.90;89.30
48876;DHT22;34689;51.644;5.618;2022-11-02T12:51:29;16.60;90.30
48876;DHT22;34689;51.644;5.618;2022-11-02T12:54:09;16.60;90.20
48876;DHT22;34689;51.644;5.618;2022-11-02T12:56:49;16.60;90.20
48876;DHT22;34689;51.644;5.618;2022-11-02T12:59:24;16.70;90.40
48876;DHT22;34689;51.644;5.618;2022-11-02T13:01:56;16.50;90.50
48876;DHT22;34689;51.644;5.618;2022-11-02T13:04:31;16.40;90.50
48876;DHT22;34689;51.644;5.618;2022-11-02T13:07:04;16.40;90.80
48876;DHT22;34689;51.644;5.618;2022-11-02T13:09:35;16.40;90.80
48876;DHT22;34689;51.644;5.618;2022-11-02T13:12:06;16.40;90.80
48876;DHT22;34689;51.644;5.618;2022-11-02T13:14:42;16.40;90.80
48876;DHT22;34689;51.644;5.618;2022-11-02T13:19:53;16.50;90.70
48876;DHT22;34689;51.644;5.618;2022-11-02T13:22:22;16.60;90.60
48876;DHT22;34689;51.644;5.618;2022-11-02T13:24:55;16.60;90.70
48876;DHT22;34689;51.644;5.618;2022-11-02T13:27:35;16.70;90.70
48876;DHT22;34689;51.644;5.618;2022-11-02T13:30:05;16.80;90.10
48876;DHT22;34689;51.644;5.618;2022-11-02T13:33:00;16.70;90.60
48876;DHT22;34689;51.644;5.618;2022-11-02T13:35:35;16.70;90.60
48876;DHT22;34689;51.644;5.618;2022-11-02T13:49:31;16.80;90.70
48876;DHT22;34689;51.644;5.618;2022-11-02T13:52:18;16.90;90.60
48876;DHT22;34689;51.644;5.618;2022-11-02T13:54:47;16.90;90.60
48876;DHT22;34689;51.644;5.618;2022-11-02T13:57:39;17.00;90.60
48876;DHT22;34689;51.644;5.618;2022-11-02T14:03:41;17.10;90.40
48876;DHT22;34689;51.644;5.618;2022-11-02T14:05:53;17.10;90.50
48876;DHT22;34689;51.644;5.618;2022-11-02T14:08:30;17.00;90.70
48876;DHT22;34689;51.644;5.618;2022-11-02T14:16:55;16.50;91.20
48876;DHT22;34689;51.644;5.618;2022-11-02T14:19:30;16.50;91.30
48876;DHT22;34689;51.644;5.618;2022-11-02T14:27:00;16.40;91.20
48876;DHT22;34689;51.644;5.618;2022-11-02T14:37:52;16.20;91.50
48876;DHT22;34689;51.644;5.618;2022-11-02T14:48:17;16.10;92.00
48876;DHT22;34689;51.644;5.618;2022-11-02T14:50:57;16.10;92.00
48876;DHT22;34689;51.644;5.618;2022-11-02T14:53:27;16.10;91.90
48876;DHT22;34689;51.644;5.618;2022-11-02T14:55:55;16.00;91.80
48876;DHT22;34689;51.644;5.618;2022-11-02T14:58:32;15.90;91.80
48876;DHT22;34689;51.644;5.618;2022-11-02T15:01:02;15.90;91.90
48876;DHT22;34689;51.644;5.618;2022-11-02T15:03:34;15.90;92.00
48876;DHT22;34689;51.644;5.618;2022-11-02T15:08:55;15.80;92.10
48876;DHT22;34689;51.644;5.618;2022-11-02T15:16:57;15.70;92.10
48876;DHT22;34689;51.644;5.618;2022-11-02T15:19:40;15.70;92.10
48876;DHT22;34689;51.644;5.618;2022-11-02T15:27:35;15.60;92.20
48876;DHT22;34689;51.644;5.618;2022-11-02T15:30:03;15.60;92.20
48876;DHT22;34689;51.644;5.618;2022-11-02T15:32:33;15.50;92.30
48876;DHT22;34689;51.644;5.618;2022-11-02T15:35:02;15.50;92.30
48876;DHT22;34689;51.644;5.618;2022-11-02T15:37:32;15.40;92.30
48876;DHT22;34689;51.644;5.618;2022-11-02T15:40:02;15.40;92.40
48876;DHT22;34689;51.644;5.618;2022-11-02T15:48:42;15.30;92.50
48876;DHT22;34689;51.644;5.618;2022-11-02T16:01:33;15.10;92.80
48876;DHT22;34689;51.644;5.618;2022-11-02T16:04:04;15.10;92.80
48876;DHT22;34689;51.644;5.618;2022-11-02T16:06:34;15.10;92.80
48876;DHT22;34689;51.644;5.618;2022-11-02T16:09:24;15.10;92.90
48876;DHT22;34689;51.644;5.618;2022-11-02T16:12:11;15.00;92.90
48876;DHT22;34689;51.644;5.618;2022-11-02T16:14:38;15.00;92.90
48876;DHT22;34689;51.644;5.618;2022-11-02T16:17:16;15.00;92.90
48876;DHT22;34689;51.644;5.618;2022-11-02T16:19:44;14.90;92.90
48876;DHT22;34689;51.644;5.618;2022-11-02T16:22:11;14.90;93.00
48876;DHT22;34689;51.644;5.618;2022-11-02T16:24:43;14.90;93.00
48876;DHT22;34689;51.644;5.618;2022-11-02T16:27:11;14.80;92.90
48876;DHT22;34689;51.644;5.618;2022-11-02T16:29:41;14.80;93.00
48876;DHT22;34689;51.644;5.618;2022-11-02T16:32:10;14.80;93.00
48876;DHT22;34689;51.644;5.618;2022-11-02T16:34:38;14.70;93.00
48876;DHT22;34689;51.644;5.618;2022-11-02T16:37:05;14.70;93.10
48876;DHT22;34689;51.644;5.618;2022-11-02T16:39:33;14.70;93.10
48876;DHT22;34689;51.644;5.618;2022-11-02T16:42:06;14.70;93.10
48876;DHT22;34689;51.644;5.618;2022-11-02T16:44:34;14.60;93.20
48876;DHT22;34689;51.644;5.618;2022-11-02T16:47:15;14.60;93.20
48876;DHT22;34689;51.644;5.618;2022-11-02T16:52:31;14.60;93.20
48876;DHT22;34689;51.644;5.618;2022-11-02T16:54:57;14.50;93.30
48876;DHT22;34689;51.644;5.618;2022-11-02T16:57:33;14.50;93.20
48876;DHT22;34689;51.644;5.618;2022-11-02T17:00:04;14.50;93.30
48876;DHT22;34689;51.644;5.618;2022-11-02T17:04:58;14.50;93.20
48876;DHT22;34689;51.644;5.618;2022-11-02T17:07:30;14.50;93.20
48876;DHT22;34689;51.644;5.618;2022-11-02T17:09:58;14.50;93.30
48876;DHT22;34689;51.644;5.618;2022-11-02T17:12:37;14.50;93.20
48876;DHT22;34689;51.644;5.618;2022-11-02T17:15:14;14.40;93.20
48876;DHT22;34689;51.644;5.618;2022-11-02T17:17:41;14.40;93.20
48876;DHT22;34689;51.644;5.618;2022-11-02T17:20:16;14.40;93.20
48876;DHT22;34689;51.644;5.618;2022-11-02T17:23:31;14.40;93.30
48876;DHT22;34689;51.644;5.618;2022-11-02T17:31:23;14.30;93.30
48876;DHT22;34689;51.644;5.618;2022-11-02T17:33:50;14.30;93.30
48876;DHT22;34689;51.644;5.618;2022-11-02T17:36:16;14.20;93.30
48876;DHT22;34689;51.644;5.618;2022-11-02T17:38:45;14.20;93.40
48876;DHT22;34689;51.644;5.618;2022-11-02T17:41:12;14.20;93.30
48876;DHT22;34689;51.644;5.618;2022-11-02T17:43:58;14.20;93.40
48876;DHT22;34689;51.644;5.618;2022-11-02T17:46:24;14.20;93.30
48876;DHT22;34689;51.644;5.618;2022-11-02T17:48:50;14.20;93.40
48876;DHT22;34689;51.644;5.618;2022-11-02T17:51:18;14.10;93.40
48876;DHT22;34689;51.644;5.618;2022-11-02T17:53:45;14.10;93.40
48876;DHT22;34689;51.644;5.618;2022-11-02T17:56:10;14.10;93.40
48876;DHT22;34689;51.644;5.618;2022-11-02T17:58:36;14.10;93.40
48876;DHT22;34689;51.644;5.618;2022-11-02T18:01:03;14.10;93.30
48876;DHT22;34689;51.644;5.618;2022-11-02T18:03:29;14.10;93.40
48876;DHT22;34689;51.644;5.618;2022-11-02T18:05:58;14.10;93.40
48876;DHT22;34689;51.644;5.618;2022-11-02T18:08:24;14.10;93.40
48876;DHT22;34689;51.644;5.618;2022-11-02T18:10:53;14.10;93.40
48876;DHT22;34689;51.644;5.618;2022-11-02T18:13:22;14.10;93.40
48876;DHT22;34689;51.644;5.618;2022-11-02T18:15:48;14.10;93.40
48876;DHT22;34689;51.644;5.618;2022-11-02T18:18:14;14.00;93.40
48876;DHT22;34689;51.644;5.618;2022-11-02T18:20:40;14.00;93.40
48876;DHT22;34689;51.644;5.618;2022-11-02T18:23:06;13.90;93.40
48876;DHT22;34689;51.644;5.618;2022-11-02T18:25:32;14.00;93.50
48876;DHT22;34689;51.644;5.618;2022-11-02T18:27:59;13.90;93.40
48876;DHT22;34689;51.644;5.618;2022-11-02T18:30:26;14.00;93.40
48876;DHT22;34689;51.644;5.618;2022-11-02T18:32:53;14.00;93.40
48876;DHT22;34689;51.644;5.618;2022-11-02T18:35:20;14.00;93.40
48876;DHT22;34689;51.644;5.618;2022-11-02T18:37:49;13.90;93.40
48876;DHT22;34689;51.644;5.618;2022-11-02T18:40:16;14.00;93.40
48876;DHT22;34689;51.644;5.618;2022-11-02T18:42:45;14.00;93.40
48876;DHT22;34689;51.644;5.618;2022-11-02T18:45:13;14.00;93.40
48876;DHT22;34689;51.644;5.618;2022-11-02T18:47:39;13.90;93.40
48876;DHT22;34689;51.644;5.618;2022-11-02T18:50:06;13.90;93.40
48876;DHT22;34689;51.644;5.618;2022-11-02T18:52:32;13.90;93.40
48876;DHT22;34689;51.644;5.618;2022-11-02T18:55:00;13.90;93.40
48876;DHT22;34689;51.644;5.618;2022-11-02T18:57:30;13.90;93.40
48876;DHT22;34689;51.644;5.618;2022-11-02T18:59:56;13.90;93.40